Sunday, October 21, 2018, 6:14 AM EDT
Back to Local

KFWN, Sussex Airport

Location: Sussex, NJ, United States Lat: 41.2
Local Time: 6:14 AM EDT (10:14 GMT) Lon: -74.633
Time Zone: US/Eastern Elev: 419 ft

Show me the last for .
Show Decoded

2018-10-21 05:53 METAR KFWN 210953Z AUTO VRB06KT 10SM BKN080 OVC090 08/03 A2975 RMK AO2 SLP074
                 T00780033 =
2018-10-21 04:53 METAR KFWN 210853Z AUTO VRB05KT 10SM OVC065 07/04 A2970 RMK AO2 SLP056 T00720039
                 53022 =
2018-10-21 03:53 METAR KFWN 210753Z AUTO VRB05KT 10SM OVC050 08/03 A2967 RMK AO2 SLP046 T00780033
                 =
2018-10-21 02:53 METAR KFWN 210653Z AUTO VRB05KT 10SM OVC042 08/05 A2966 RMK AO2 SLP042 T00780050
                 =
2018-10-21 01:53 METAR KFWN 210553Z AUTO VRB04KT 10SM BKN080 08/06 A2963 RMK AO2 RAE09 SLP035
                 P0001 60012 T00780056 10089 20078 58006 =
2018-10-21 00:53 METAR KFWN 210453Z AUTO VRB03KT 10SM -RA BKN050 OVC075 08/07 A2964 RMK AO2
                 SLP038 P0003 T00830067 401720078 =
2018-10-21 00:36 METAR KFWN 210436Z AUTO 31004KT 8SM -RA FEW024 SCT029 OVC046 08/07 A2965 RMK AO2
                 P0003 T00830072 =
2018-10-20 23:53 METAR KFWN 210353Z AUTO 00000KT 10SM -RA BKN025 OVC032 08/08 A2965 RMK AO2
                 SLP039 P0005 T00830078 =
2018-10-20 22:53 METAR KFWN 210253Z AUTO 22003KT 9SM -RA SCT040 OVC047 08/07 A2965 RMK AO2
                 RAB0157 SLP040 P0003 60003 T00830072 53007 =
2018-10-20 21:53 METAR KFWN 210153Z AUTO 00000KT 10SM SCT060 BKN075 OVC090 08/07 A2963 RMK AO2
                 RAB37E50 SLP033 P0000 T00830067 =
2018-10-20 20:53 METAR KFWN 210053Z AUTO 00000KT 10SM SCT060 OVC080 08/06 A2963 RMK AO2 SLP034
                 T00780056 =
2018-10-20 19:53 METAR KFWN 202353Z AUTO VRB03KT 10SM FEW110 10/04 A2963 RMK AO2 SLP034 60000
                 T01000044 10172 20100 53011 =
2018-10-20 18:53 METAR KFWN 202253Z AUTO VRB05KT 10SM FEW070 12/05 A2962 RMK AO2 SLP030 T01220050
                 =
2018-10-20 17:53 METAR KFWN 202153Z AUTO 23005KT 10SM CLR 14/04 A2959 RMK AO2 SLP021 T01390044 =
2018-10-20 16:53 METAR KFWN 202053Z AUTO 25005KT 10SM CLR 16/04 A2960 RMK AO2 SLP022 60000
                 T01610044 56018 =
2018-10-20 15:53 METAR KFWN 201953Z AUTO VRB04G16KT 10SM SCT070 16/05 A2962 RMK AO2 RAB30E41
                 SLP028 P0000 T01560050 =
2018-10-20 14:53 METAR KFWN 201853Z AUTO VRB05KT 10SM FEW049 OVC065 16/06 A2963 RMK AO2 SLP031
                 T01610061 =
2018-10-20 13:53 METAR KFWN 201753Z AUTO VRB06KT 10SM OVC060 16/07 A2965 RMK AO2 SLP040 T01560067
                 10172 20106 58023 =
2018-10-20 12:53 METAR KFWN 201653Z AUTO VRB05G15KT 10SM FEW043 17/08 A2968 RMK AO2 SLP048
                 T01670078 =
2018-10-20 11:53 METAR KFWN 201553Z AUTO 25010G15KT 220V280 10SM SCT034 14/08 A2970 RMK AO2
                 SLP057 T01440078 =
2018-10-20 11:27 METAR KFWN 201527Z AUTO 24008KT 190V270 10SM SCT030 SCT034 14/09 A2970 RMK AO2
                 T01440089 =
2018-10-20 10:53 METAR KFWN 201453Z AUTO VRB05KT 10SM BKN025 14/10 A2972 RMK AO2 SLP063 T01440100
                 58006 =
2018-10-20 10:37 METAR KFWN 201437Z AUTO 22007KT 10SM BKN023 14/10 A2972 RMK AO2 T01440100 =
2018-10-20 10:26 METAR KFWN 201426Z AUTO 22007KT 180V250 10SM SCT022 14/11 A2972 RMK AO2
                 T01390106 =
2018-10-20 10:08 METAR KFWN 201408Z AUTO 21006KT 10SM FEW014 BKN024 OVC032 12/11 A2973 RMK AO2
                 T01220106 =
2018-10-20 09:53 METAR KFWN 201353Z AUTO 22006KT 10SM FEW017 SCT029 BKN034 13/11 A2974 RMK AO2
                 SLP069 T01280111 =
2018-10-20 09:10 METAR KFWN 201310Z AUTO 22009KT 7SM SCT009 OVC075 12/11 A2973 RMK AO2 T01170106
                 =
2018-10-20 08:53 METAR KFWN 201253Z AUTO 22008KT 6SM BR BKN009 OVC075 11/11 A2973 RMK AO2 CIG
                 007V012 SLP067 T01110106 =
2018-10-20 07:53 METAR KFWN 201153Z AUTO 22005KT 6SM BR BKN007 OVC030 11/10 A2974 RMK AO2 SLP070
                 60001 70002 T01060100 10106 20089 55001 =
2018-10-20 07:26 METAR KFWN 201126Z AUTO 22006KT 7SM BKN009 BKN019 OVC032 10/09 A2973 RMK AO2 CIG
                 006V010 T01000094 =
2018-10-20 07:06 METAR KFWN 201106Z AUTO VRB05KT 10SM FEW009 BKN013 OVC034 10/09 A2973 RMK AO2
                 T01000094 =
2018-10-20 06:53 METAR KFWN 201053Z AUTO 20004KT 10SM OVC013 10/09 A2973 RMK AO2 SLP069 T01000094
                 =

Support USWX by starting your Amazon purchase here.